Terminal Aerodrome Forecast
Issued by NWS Cleveland, OH

Home | Current Version | Previous Version | Graphics & Text | Print | Product List | Glossary On
Versions: 1 2 3 4 5 6 7 8 9 10 11 12 13 14 15 16 17 18 19 20 21 22 23 24 25 26 27 28 29 30 31 32 33 34 35
000
FTUS41 KCLE 200800 AAA
TAFCLE
TAF AMD
KCLE 200854Z 2009/2112 VRB04KT P6SM SCT250
     FM201300 18007KT P6SM SCT250
     FM202030 04005KT P6SM SCT250
     FM210100 18005KT P6SM SCT250=

USA.gov is the U.S. government's official web portal to all federal, state and local government web resources and services.